CheckWX is a tool to help pilots better visualize weather data.  It is not intended as a substitute for an official pre-flight weather briefing.

15:21:27 UTC

ULMM TAF
Murmansk Airport
Murmansk, Russian Federation
TAF ULMM 231355Z 2315/2415 19003G08MPS 6000 -SHSN BKN011CB TEMPO 2315/2321 22003G08MPS 1700 SHSNRA SCT006 BKN011CB FM232100 20003G08MPS 9999 BKN011 TEMPO 2321/2415 VRB01MPS 5000 -SHSN BKN011CB

Mar-23@
15:00 UTC

Mar-23 @ 15:00 UTC

Mar-23@
21:00 UTC

Mar-23 @ 21:00 UTC

TAF ULMM 231355Z 2315/2415 19003G08MPS 6000 -SHSN BKN011CB
Wind
  • 190° at 6 KTS
  • {Gusting to 16 KTS
Conditions
Light Snow
Cloud Levels
  • Broken at 1,100' AGL

Mar-23@
15:00 UTC

Mar-23 @ 15:00 UTC

Mar-23@
21:00 UTC

Mar-23 @ 21:00 UTC

TEMPO 2315/2321 22003G08MPS 1700 SHSNRA SCT006 BKN011CB

Temporary

Temporary Changes expected for less than half the time period

Wind
  • 220° at 6 KTS
  • {Gusting to 16 KTS
Conditions
Snow, Rain
Cloud Levels
  • Scattered at 600' AGL
  • Broken at 1,100' AGL

Mar-23@
21:00 UTC

Mar-23 @ 21:00 UTC

Mar-24@
15:00 UTC

Mar-24 @ 15:00 UTC

FM232100 20003G08MPS 9999 BKN011

From

From Standard forecast or significant change

Wind
  • 200° at 6 KTS
  • {Gusting to 16 KTS
Cloud Levels
  • Broken at 1,100' AGL

Mar-23@
21:00 UTC

Mar-23 @ 21:00 UTC

Mar-24@
15:00 UTC

Mar-24 @ 15:00 UTC

TEMPO 2321/2415 VRB01MPS 5000 -SHSN BKN011CB

Temporary

Temporary Changes expected for less than half the time period

Wind
  • Variable at 2 KTS
Conditions
Light Snow
Cloud Levels
  • Broken at 1,100' AGL